Time;durP1;ratioP1;P1;durP2;ratioP2;P2;SDS_P1;SDS_P2;PMS_P1;PMS_P2;Temp;Humidity;BMP_temperature;BMP_pressure;BME280_temperature;BME280_humidity;BME280_pressure;Samples;Min_cycle;Max_cycle;Signal;HPM_P1;HPM_P2
2023/10/30 00:00:19;;;;;;;7.07;1.90;;;;;;;8.88;100.00;99790.34;5093438;28;20044;-79
2023/10/30 00:02:46;;;;;;;5.10;1.67;;;;;;;8.87;100.00;99791.53;5091512;28;20516;-79
2023/10/30 00:05:13;;;;;;;4.13;1.48;;;;;;;8.88;100.00;99793.00;5091884;28;20048;-79
2023/10/30 00:07:39;;;;;;;4.32;1.85;;;;;;;8.87;100.00;99791.53;5092256;28;20044;-79
2023/10/30 00:10:06;;;;;;;5.68;1.60;;;;;;;8.85;100.00;99799.19;5091767;28;20498;-79
2023/10/30 00:12:33;;;;;;;7.05;1.80;;;;;;;8.84;100.00;99803.78;5092546;28;20390;-79
2023/10/30 00:15:03;;;;;;;4.88;1.58;;;;;;;8.85;100.00;99805.25;5092954;28;20539;-79
2023/10/30 00:17:30;;;;;;;7.05;1.75;;;;;;;8.85;100.00;99809.81;5092709;28;20503;-79
2023/10/30 00:19:57;;;;;;;3.33;1.50;;;;;;;8.84;100.00;99816.31;5093171;28;20037;-79
2023/10/30 00:22:24;;;;;;;2.55;1.35;;;;;;;8.84;100.00;99811.00;5093227;28;20501;-79
2023/10/30 00:24:50;;;;;;;3.05;1.60;;;;;;;8.82;100.00;99814.09;5092424;28;20488;-79
2023/10/30 00:27:17;;;;;;;2.97;1.40;;;;;;;8.82;100.00;99816.75;5093229;28;20044;-79
2023/10/30 00:29:44;;;;;;;4.93;1.27;;;;;;;8.80;100.00;99829.75;5092460;28;20040;-79
2023/10/30 00:32:10;;;;;;;5.20;1.58;;;;;;;8.80;100.00;99823.69;5091640;28;20045;-79
2023/10/30 00:34:37;;;;;;;5.55;1.88;;;;;;;8.78;100.00;99816.22;5092749;28;20071;-79
2023/10/30 00:37:03;;;;;;;4.22;1.60;;;;;;;8.77;100.00;99819.31;5093231;28;20571;-79
2023/10/30 00:39:32;;;;;;;8.05;1.83;;;;;;;8.75;100.00;99811.06;5090615;28;20045;-79
2023/10/30 00:42:02;;;;;;;5.20;1.25;;;;;;;8.74;100.00;99820.94;5092776;28;20044;-78
2023/10/30 00:44:28;;;;;;;8.07;1.90;;;;;;;8.72;100.00;99831.25;5092658;28;20129;-78
2023/10/30 00:46:55;;;;;;;7.80;2.33;;;;;;;8.71;100.00;99824.50;5092604;28;20531;-79
2023/10/30 00:49:21;;;;;;;5.82;1.95;;;;;;;8.67;100.00;99831.88;5092829;28;20055;-80
2023/10/30 00:51:51;;;;;;;3.28;1.42;;;;;;;8.68;100.00;99839.38;5090934;28;20075;-79
2023/10/30 00:54:17;;;;;;;5.82;1.75;;;;;;;8.67;100.00;99834.53;5090985;28;20053;-78
2023/10/30 00:56:44;;;;;;;6.60;1.55;;;;;;;8.67;100.00;99831.88;5089837;28;20053;-78
2023/10/30 00:59:11;;;;;;;8.00;1.55;;;;;;;8.66;100.00;99841.75;5092653;28;20036;-79
2023/10/30 01:01:37;;;;;;;9.05;1.70;;;;;;;8.65;100.00;99850.88;5090698;28;20379;-78
2023/10/30 01:04:05;;;;;;;5.28;1.60;;;;;;;8.65;100.00;99850.88;5091097;28;20480;-79
2023/10/30 01:06:32;;;;;;;7.47;1.63;;;;;;;8.66;100.00;99859.59;5090743;28;20887;-79
2023/10/30 01:08:59;;;;;;;5.80;1.70;;;;;;;8.65;100.00;99866.06;5092269;28;20055;-79
2023/10/30 01:11:25;;;;;;;4.90;1.80;;;;;;;8.65;100.00;99866.06;5092167;28;20494;-79
2023/10/30 01:13:53;;;;;;;10.23;2.00;;;;;;;8.64;100.00;99872.56;5090368;28;20064;-79
2023/10/30 01:16:19;;;;;;;4.38;1.80;;;;;;;8.65;100.00;99871.38;5092294;28;20048;-79
2023/10/30 01:18:46;;;;;;;3.38;1.75;;;;;;;8.65;100.00;99866.06;5091790;28;20047;-79
2023/10/30 01:21:14;;;;;;;1.85;1.17;;;;;;;8.65;100.00;99866.81;5093542;28;20576;-79
2023/10/30 01:23:41;;;;;;;4.95;1.80;;;;;;;8.66;100.00;99878.16;5093567;28;20045;-79
2023/10/30 01:26:09;;;;;;;5.82;1.90;;;;;;;8.65;100.00;99871.38;5094539;28;20052;-79
2023/10/30 01:28:35;;;;;;;4.68;1.95;;;;;;;8.65;100.00;99868.72;5095255;28;20413;-79
2023/10/30 01:31:04;;;;;;;11.00;1.67;;;;;;;8.65;100.00;99876.69;5094280;28;20048;-78
2023/10/30 01:33:32;;;;;;;9.15;1.83;;;;;;;8.65;100.00;99874.03;5094149;28;20056;-78
2023/10/30 01:35:59;;;;;;;2.67;1.50;;;;;;;8.65;100.00;99872.13;5095978;28;20045;-79
2023/10/30 01:38:25;;;;;;;8.15;1.65;;;;;;;8.66;100.00;99872.84;5095318;28;20119;-79
2023/10/30 01:40:53;;;;;;;10.23;2.03;;;;;;;8.64;100.00;99868.00;5093565;28;20526;-78
2023/10/30 01:43:30;;;;;;;5.47;1.52;;;;;;;8.66;100.00;99873.59;5095594;28;20053;-78
2023/10/30 01:45:58;;;;;;;5.80;1.65;;;;;;;8.66;100.00;99873.59;5095582;28;20037;-79
2023/10/30 01:48:27;;;;;;;6.25;1.35;;;;;;;8.65;100.00;99871.38;5094100;28;20080;-79
2023/10/30 01:50:55;;;;;;;9.07;2.08;;;;;;;8.68;100.00;99873.88;5093490;28;20512;-79
2023/10/30 01:53:23;;;;;;;9.93;1.95;;;;;;;8.69;100.00;99874.63;5095009;28;20045;-80
2023/10/30 01:55:51;;;;;;;5.72;1.50;;;;;;;8.67;100.00;99875.06;5092947;28;20063;-79
2023/10/30 01:58:18;;;;;;;5.35;1.63;;;;;;;8.68;100.00;99870.50;5093758;28;20045;-79
2023/10/30 02:00:46;;;;;;;6.18;1.70;;;;;;;8.72;100.00;99879.03;5093016;28;20080;-79
2023/10/30 02:03:12;;;;;;;5.45;1.77;;;;;;;8.72;100.00;99873.72;5093871;28;20495;-79
2023/10/30 02:05:40;;;;;;;6.30;1.90;;;;;;;8.71;100.00;99882.88;5094864;28;20037;-79
2023/10/30 02:08:08;;;;;;;5.38;1.48;;;;;;;8.73;100.00;99883.16;5093734;28;20072;-79
2023/10/30 02:10:35;;;;;;;6.20;2.47;;;;;;;8.74;100.00;99881.97;5092903;28;20126;-79
2023/10/30 02:13:06;;;;;;;8.02;1.50;;;;;;;8.76;100.00;99878.88;5095019;28;20106;-79
2023/10/30 02:15:33;;;;;;;;;;;;;;;8.77;100.00;99881.09;5095062;28;20041;-79
2023/10/30 02:18:00;;;;;;;5.10;1.48;;;;;;;8.77;100.00;99885.66;5095138;28;19924;-79
2023/10/30 02:20:27;;;;;;;5.65;1.35;;;;;;;8.76;100.00;99876.97;5093534;28;20044;-79
2023/10/30 02:22:54;;;;;;;7.40;2.00;;;;;;;8.78;100.00;99889.78;5092987;28;20048;-80
2023/10/30 02:25:24;;;;;;;9.05;2.00;;;;;;;8.79;100.00;99894.66;5093496;28;20044;-79
2023/10/30 02:27:52;;;;;;;7.40;2.03;;;;;;;8.77;100.00;99889.03;5092911;28;20058;-79
2023/10/30 02:30:19;;;;;;;5.55;1.60;;;;;;;8.79;100.00;99893.91;5092957;28;20499;-79
2023/10/30 02:32:47;;;;;;;6.40;1.75;;;;;;;8.77;100.00;99883.75;5092418;28;20489;-79
2023/10/30 02:35:16;;;;;;;5.28;1.60;;;;;;;8.76;100.00;99897.44;5093724;28;20040;-80
2023/10/30 02:37:44;;;;;;;7.25;1.67;;;;;;;8.78;100.00;99893.16;5093817;28;20098;-79
2023/10/30 02:40:11;;;;;;;7.80;1.88;;;;;;;8.81;100.00;99897.56;5094675;28;20551;-79
2023/10/30 02:42:39;;;;;;;4.18;1.55;;;;;;;8.81;100.00;99905.53;5094129;28;20112;-79
2023/10/30 02:45:06;;;;;;;7.22;1.77;;;;;;;8.81;100.00;99912.75;5094282;28;20127;-79
2023/10/30 02:47:34;;;;;;;9.40;1.77;;;;;;;8.80;100.00;99914.66;5094253;28;20044;-79
2023/10/30 02:50:01;;;;;;;4.80;1.58;;;;;;;8.78;100.00;99913.66;5093866;28;20554;-79
2023/10/30 02:52:31;;;;;;;2.95;1.55;;;;;;;8.78;100.00;99909.09;5094745;28;20075;-79
2023/10/30 02:54:58;;;;;;;8.63;1.58;;;;;;;8.78;100.00;99911.00;5094154;28;20047;-79
2023/10/30 02:57:24;;;;;;;2.67;1.40;;;;;;;8.76;100.00;99916.75;5094420;28;20057;-79
2023/10/30 02:59:51;;;;;;;6.97;1.35;;;;;;;8.75;100.00;99917.94;5092541;28;20049;-79
2023/10/30 03:02:17;;;;;;;6.18;1.45;;;;;;;8.73;100.00;99922.97;5092928;28;20510;-79
2023/10/30 03:04:44;;;;;;;3.95;1.70;;;;;;;8.72;100.00;99912.78;5075094;28;20135;-79
2023/10/30 03:07:11;;;;;;;7.65;1.60;;;;;;;8.74;100.00;99913.81;5094406;28;20493;-79
2023/10/30 03:09:38;;;;;;;9.43;1.42;;;;;;;8.77;100.00;99922.81;5092213;28;20102;-79
2023/10/30 03:12:05;;;;;;;10.25;2.30;;;;;;;8.79;100.00;99926.50;5092565;28;20053;-79
2023/10/30 03:14:32;;;;;;;5.30;1.30;;;;;;;8.81;100.00;99924.09;5075618;28;20049;-78
2023/10/30 03:16:59;;;;;;;6.13;1.60;;;;;;;8.80;100.00;99927.94;5092805;28;20044;-79
2023/10/30 03:19:25;;;;;;;7.97;1.65;;;;;;;8.81;100.00;99926.00;5093552;28;20048;-79
2023/10/30 03:21:52;;;;;;;5.78;1.45;;;;;;;8.81;100.00;99926.00;5092201;28;20052;-79
2023/10/30 03:24:19;;;;;;;6.05;1.92;;;;;;;8.81;100.00;99921.44;5092760;28;20049;-78
2023/10/30 03:26:47;;;;;;;7.95;1.65;;;;;;;8.83;100.00;99927.03;5092290;28;20551;-79
2023/10/30 03:29:14;;;;;;;6.63;1.50;;;;;;;8.84;100.00;99933.09;5092588;28;20049;-79
2023/10/30 03:31:41;;;;;;;10.15;1.67;;;;;;;8.81;100.00;99929.41;5093347;28;20119;-79
2023/10/30 03:34:07;;;;;;;8.05;1.52;;;;;;;8.82;100.00;99932.78;5092064;28;20070;-79
2023/10/30 03:36:34;;;;;;;6.30;1.70;;;;;;;8.84;100.00;99930.44;5092140;28;20072;-79
2023/10/30 03:39:00;;;;;;;11.30;1.75;;;;;;;8.85;100.00;99932.63;5092399;28;20490;-79
2023/10/30 03:41:27;;;;;;;7.20;1.60;;;;;;;8.84;100.00;99933.81;5093887;28;20147;-79
2023/10/30 03:43:53;;;;;;;5.63;1.95;;;;;;;8.85;100.00;99929.25;5092531;28;20041;-79
2023/10/30 03:46:20;;;;;;;7.35;1.95;;;;;;;8.87;100.00;99932.19;5093817;28;20044;-79
2023/10/30 03:48:47;;;;;;;9.15;2.00;;;;;;;8.87;100.00;99930.28;5091023;28;20500;-79
2023/10/30 03:51:13;;;;;;;5.43;1.73;;;;;;;8.83;100.00;99929.69;5092003;28;20060;-79
2023/10/30 03:53:40;;;;;;;9.98;1.88;;;;;;;8.84;100.00;99923.22;5091548;28;20044;-80
2023/10/30 03:56:06;;;;;;;3.47;1.60;;;;;;;8.83;100.00;99921.72;5091513;28;20540;-80
2023/10/30 03:58:33;;;;;;;5.78;1.73;;;;;;;8.83;100.00;99921.72;5091626;28;20076;-79
2023/10/30 04:01:07;;;;;;;5.65;1.55;;;;;;;8.83;100.00;99918.34;5092073;28;20049;-79
2023/10/30 04:03:33;;;;;;;5.57;1.63;;;;;;;8.79;100.00;99909.81;5090881;28;20441;-78
2023/10/30 04:06:02;;;;;;;8.45;1.75;;;;;;;8.78;100.00;99916.31;5093326;28;20044;-79
2023/10/30 04:08:29;;;;;;;6.35;1.63;;;;;;;8.78;100.00;99906.44;5091546;28;20047;-78
2023/10/30 04:10:56;;;;;;;4.07;1.40;;;;;;;8.76;100.00;99914.09;5091742;28;20475;-79
2023/10/30 04:13:23;;;;;;;5.07;1.67;;;;;;;8.73;100.00;99917.66;5093642;28;20044;-79
2023/10/30 04:15:49;;;;;;;6.47;1.77;;;;;;;8.68;100.00;99900.41;5092869;28;20044;-79
2023/10/30 04:18:16;;;;;;;9.75;1.75;;;;;;;8.68;100.00;99910.28;5091500;28;20049;-80
2023/10/30 04:20:43;;;;;;;12.90;1.52;;;;;;;8.66;100.00;99913.38;5092406;28;20131;-79
2023/10/30 04:23:10;;;;;;;3.45;1.35;;;;;;;8.65;100.00;99919.88;5093144;28;20078;-79
2023/10/30 04:25:36;;;;;;;7.47;1.70;;;;;;;8.64;100.00;99923.72;5092464;28;20076;-79
2023/10/30 04:28:03;;;;;;;5.18;1.85;;;;;;;8.63;100.00;99913.53;5091707;28;20111;-80
2023/10/30 04:30:30;;;;;;;3.67;1.45;;;;;;;8.62;100.00;99920.03;5092782;28;20047;-80
2023/10/30 04:32:57;;;;;;;7.78;1.70;;;;;;;8.60;100.00;99915.16;5092466;28;20520;-80
2023/10/30 04:35:24;;;;;;;8.60;2.10;;;;;;;8.58;100.00;99914.88;5092919;28;20444;-80
2023/10/30 04:37:51;;;;;;;5.22;1.33;;;;;;;8.57;100.00;99918.69;5092484;28;20036;-80
2023/10/30 04:40:17;;;;;;;5.00;1.42;;;;;;;8.57;100.00;99923.28;5093179;28;20091;-80
2023/10/30 04:42:44;;;;;;;7.13;1.40;;;;;;;8.56;100.00;99922.53;5091266;28;20044;-80
2023/10/30 04:45:10;;;;;;;7.75;1.80;;;;;;;8.55;100.00;99923.72;5093040;28;20044;-80
2023/10/30 04:47:37;;;;;;;4.80;1.30;;;;;;;8.54;100.00;99929.47;5091987;28;20072;-80
2023/10/30 04:50:04;;;;;;;9.18;1.70;;;;;;;8.52;100.00;99919.28;5092642;28;20060;-80
2023/10/30 04:52:31;;;;;;;4.22;1.27;;;;;;;8.50;100.00;99918.28;5074110;28;20072;-80
2023/10/30 04:54:58;;;;;;;7.22;1.70;;;;;;;8.49;100.00;99917.53;5091086;28;20048;-80
2023/10/30 04:57:24;;;;;;;7.38;1.50;;;;;;;8.46;100.00;99920.34;5091142;28;20052;-80
2023/10/30 04:59:51;;;;;;;8.45;1.60;;;;;;;8.45;100.00;99914.28;5090655;28;20052;-80
2023/10/30 05:02:17;;;;;;;6.10;1.40;;;;;;;8.44;100.00;99917.38;5091036;28;20044;-80
2023/10/30 05:04:44;;;;;;;11.27;1.63;;;;;;;8.41;100.00;99910.31;5092020;28;20514;-80
2023/10/30 05:07:10;;;;;;;13.27;1.75;;;;;;;8.40;100.00;99916.81;5092523;28;20525;-80
2023/10/30 05:09:37;;;;;;;6.68;1.73;;;;;;;8.39;100.00;99931.25;5092008;28;20048;-80
2023/10/30 05:12:04;;;;;;;3.72;1.60;;;;;;;8.38;100.00;99930.53;5092822;28;20041;-80
2023/10/30 05:14:31;;;;;;;6.55;1.30;;;;;;;8.37;100.00;99921.09;5073812;28;20048;-80
2023/10/30 05:16:57;;;;;;;6.80;1.60;;;;;;;8.35;100.00;99918.88;5092127;28;20040;-80
2023/10/30 05:19:25;;;;;;;6.75;2.17;;;;;;;8.34;100.00;99917.41;5091402;28;20493;-80
2023/10/30 05:21:52;;;;;;;8.95;2.10;;;;;;;8.34;100.00;99917.41;5091780;28;20785;-80
2023/10/30 05:24:18;;;;;;;11.05;1.55;;;;;;;8.35;100.00;99923.47;5092423;28;20127;-80
2023/10/30 05:26:45;;;;;;;10.23;1.52;;;;;;;8.35;100.00;99928.75;5091894;28;20054;-80
2023/10/30 05:29:11;;;;;;;6.85;1.67;;;;;;;8.33;100.00;99917.84;5092187;28;20041;-80
2023/10/30 05:31:38;;;;;;;8.80;2.00;;;;;;;8.31;100.00;99925.50;5090184;28;20128;-80
2023/10/30 05:34:05;;;;;;;8.68;2.17;;;;;;;8.30;100.00;99914.16;5090940;28;20049;-80
2023/10/30 05:36:31;;;;;;;10.98;2.00;;;;;;;8.30;100.00;99911.50;5090697;28;20109;-79
2023/10/30 05:38:58;;;;;;;5.50;1.65;;;;;;;8.31;100.00;99914.88;5091029;28;20058;-80
2023/10/30 05:41:25;;;;;;;5.88;1.92;;;;;;;8.29;100.00;99904.72;5090697;28;20475;-80
2023/10/30 05:43:52;;;;;;;4.05;1.83;;;;;;;8.26;100.00;99915.47;5091253;28;20404;-80
2023/10/30 05:46:19;;;;;;;6.22;1.70;;;;;;;8.24;100.00;99918.56;5091982;28;20052;-82
2023/10/30 05:48:45;;;;;;;9.95;1.65;;;;;;;8.23;100.00;99927.69;5091596;28;20041;-80
2023/10/30 05:51:12;;;;;;;8.88;1.90;;;;;;;8.26;100.00;99920.78;5092309;28;20135;-80
2023/10/30 05:53:38;;;;;;;4.68;1.58;;;;;;;8.27;100.00;99922.97;5091641;28;20143;-79
2023/10/30 05:56:05;;;;;;;7.13;2.00;;;;;;;8.30;100.00;99921.38;5091450;28;20492;-79
2023/10/30 05:58:33;;;;;;;4.40;1.15;;;;;;;8.29;100.00;99925.19;5090999;28;20076;-80
2023/10/30 06:00:59;;;;;;;7.38;1.52;;;;;;;8.29;100.00;99931.25;5091877;28;20047;-80
2023/10/30 06:03:26;;;;;;;9.90;1.80;;;;;;;8.30;100.00;99924.75;5092079;28;20056;-79
2023/10/30 06:05:52;;;;;;;5.32;1.63;;;;;;;8.31;100.00;99928.16;5091684;28;20537;-80
2023/10/30 06:08:23;;;;;;;9.00;1.92;;;;;;;8.30;100.00;99930.06;5095546;28;20047;-80
2023/10/30 06:10:50;;;;;;;4.97;1.60;;;;;;;8.31;100.00;99934.19;5093196;28;20049;-79
2023/10/30 06:13:18;;;;;;;5.97;1.50;;;;;;;8.32;100.00;99930.38;5094811;28;20133;-79
2023/10/30 06:15:45;;;;;;;5.38;1.77;;;;;;;8.32;100.00;99930.38;5094586;28;20040;-79
2023/10/30 06:18:11;;;;;;;6.18;2.00;;;;;;;8.31;100.00;99926.22;5092947;28;20532;-80
2023/10/30 06:20:38;;;;;;;7.25;1.75;;;;;;;8.32;100.00;99930.38;5094618;28;20055;-77
2023/10/30 06:23:04;;;;;;;5.65;2.13;;;;;;;8.34;100.00;99932.59;5094910;28;20056;-81
2023/10/30 06:25:31;;;;;;;8.77;1.80;;;;;;;8.33;100.00;99939.81;5094746;28;20056;-80
2023/10/30 06:27:57;;;;;;;4.55;1.80;;;;;;;8.32;100.00;99951.59;5094495;28;20103;-81
2023/10/30 06:30:24;;;;;;;7.63;1.95;;;;;;;8.32;100.00;99964.84;5093651;28;20456;-80
2023/10/30 06:32:51;;;;;;;6.88;1.45;;;;;;;8.30;100.00;99959.22;5092801;28;20464;-81
2023/10/30 06:35:17;;;;;;;9.02;1.55;;;;;;;8.29;100.00;99965.72;5093538;28;20048;-80
2023/10/30 06:37:44;;;;;;;8.15;1.70;;;;;;;8.25;100.00;99967.75;5093078;28;20040;-79
2023/10/30 06:40:11;;;;;;;7.20;1.80;;;;;;;8.23;100.00;99967.47;5094880;28;20044;-79
2023/10/30 06:42:37;;;;;;;6.13;1.63;;;;;;;8.22;100.00;99968.66;5093737;28;20387;-82
2023/10/30 06:45:04;;;;;;;7.10;1.75;;;;;;;8.24;100.00;99965.56;5094790;28;20467;-81
2023/10/30 06:47:31;;;;;;;5.93;1.73;;;;;;;8.24;100.00;99961.00;5092911;28;20603;-81
2023/10/30 06:49:58;;;;;;;9.65;1.73;;;;;;;8.25;100.00;99959.81;5094838;28;20120;-80
2023/10/30 06:52:24;;;;;;;28.45;5.63;;;;;;;8.26;100.00;99966.59;5094884;28;20045;-86
2023/10/30 06:54:51;;;;;;;7.05;1.27;;;;;;;8.26;100.00;99961.28;5094387;28;20032;-86
2023/10/30 06:57:18;;;;;;;4.18;1.40;;;;;;;8.26;100.00;99963.19;5092897;28;20123;-86
2023/10/30 06:59:45;;;;;;;13.68;1.75;;;;;;;8.29;100.00;99963.06;5092985;28;20045;-82
2023/10/30 07:02:12;;;;;;;7.97;1.65;;;;;;;8.30;100.00;99966.44;5094610;28;20047;-81
2023/10/30 07:04:39;;;;;;;15.65;1.88;;;;;;;8.33;100.00;99978.84;5093757;28;20478;-80
2023/10/30 07:07:06;;;;;;;4.28;1.65;;;;;;;8.35;100.00;99982.53;5094442;28;20040;-81
2023/10/30 07:09:32;;;;;;;10.88;2.25;;;;;;;8.36;100.00;99988.56;5093976;28;20044;-81
2023/10/30 07:11:59;;;;;;;10.55;2.35;;;;;;;8.38;100.00;99993.44;5094050;28;20057;-81
2023/10/30 07:14:26;;;;;;;7.00;2.25;;;;;;;8.39;100.00;100003.63;5094256;28;20049;-81
2023/10/30 07:16:53;;;;;;;7.97;2.10;;;;;;;8.41;100.00;100009.19;5092594;28;20517;-81
2023/10/30 07:19:30;;;;;;;7.63;1.88;;;;;;;8.43;100.00;100003.44;5093655;28;20044;-81
2023/10/30 07:21:57;;;;;;;9.60;2.78;;;;;;;8.44;100.00;100000.34;5094297;28;20045;-82
2023/10/30 07:24:24;;;;;;;8.27;2.15;;;;;;;8.48;100.00;100000.94;5093242;28;20045;-81
2023/10/30 07:26:51;;;;;;;6.00;1.80;;;;;;;8.52;100.00;100003.44;5091891;28;20045;-91
2023/10/30 07:29:17;;;;;;;7.93;2.00;;;;;;;8.56;100.00;100002.13;5093347;28;20053;-86
2023/10/30 07:31:44;;;;;;;10.02;1.75;;;;;;;8.62;100.00;100010.97;5093206;28;20040;-87
2023/10/30 07:34:10;;;;;;;7.32;1.83;;;;;;;8.67;100.00;100015.69;5094744;28;20048;-83
2023/10/30 07:36:43;;;;;;;7.18;2.47;;;;;;;8.75;100.00;100016.13;5093861;28;20052;-86
2023/10/30 07:39:09;;;;;;;7.38;2.10;;;;;;;8.80;100.00;100012.84;5092777;28;20505;-86
2023/10/30 07:41:40;;;;;;;8.27;2.00;;;;;;;8.87;100.00;100017.88;5093116;28;20119;-85
2023/10/30 07:44:12;;;;;;;7.72;1.90;;;;;;;8.93;100.00;100018.75;5093127;28;20047;-86
2023/10/30 07:46:39;;;;;;;9.18;2.17;;;;;;;9.00;100.00;100028.31;5093270;28;20048;-81
2023/10/30 07:49:08;;;;;;;10.57;2.10;;;;;;;9.07;100.00;100037.91;5093773;28;20051;-82
2023/10/30 07:51:38;;;;;;;6.85;2.10;;;;;;;9.14;100.00;100032.28;5093223;28;20049;-83
2023/10/30 07:54:07;;;;;;;7.18;1.92;;;;;;;9.22;100.00;100038.75;5092849;28;20480;-82
2023/10/30 07:56:35;;;;;;;4.75;1.80;;;;;;;9.30;100.00;100045.97;5090842;28;20468;-82
2023/10/30 07:59:06;;;;;;;13.40;2.20;;;;;;;9.39;100.00;100057.75;5094169;28;20062;-82
2023/10/30 08:01:36;;;;;;;9.63;3.78;;;;;;;9.47;100.00;100056.25;5092828;28;20122;-82
2023/10/30 08:04:03;;;;;;;12.05;1.80;;;;;;;9.53;100.00;100041.19;5092188;28;20867;-83
2023/10/30 08:06:30;;;;;;;7.88;2.10;;;;;;;9.64;100.00;100054.69;5091563;28;20048;-82
2023/10/30 08:08:57;;;;;;;11.13;2.17;;;;;;;9.73;100.00;100059.25;5073890;28;20048;-82
2023/10/30 08:11:24;;;;;;;12.20;1.73;;;;;;;9.76;100.00;100063.66;5091738;28;20063;-83
2023/10/30 08:13:50;;;;;;;11.93;2.10;;;;;;;9.81;100.00;100060.41;5092856;28;20049;-83
2023/10/30 08:16:17;;;;;;;7.00;2.15;;;;;;;9.84;100.00;100044.28;5091222;28;20505;-83
2023/10/30 08:18:43;;;;;;;7.65;2.17;;;;;;;9.90;100.00;100047.06;5092752;28;20128;-84
2023/10/30 08:21:10;;;;;;;6.28;1.63;;;;;;;9.95;100.00;100039.22;5091533;28;20124;-85
2023/10/30 08:23:37;;;;;;;12.20;2.05;;;;;;;10.01;100.00;100032.06;5090374;28;20055;-84
2023/10/30 08:26:07;;;;;;;10.90;2.45;;;;;;;10.08;100.00;100040.91;5093342;28;20047;-85
2023/10/30 08:28:34;;;;;;;10.32;2.05;;;;;;;10.16;100.00;100047.38;5092484;28;20131;-89
2023/10/30 08:31:00;;;;;;;11.30;1.77;;;;;;;10.26;100.00;100038.19;5093733;28;20045;-88
2023/10/30 08:33:27;;;;;;;9.18;1.95;;;;;;;10.32;100.00;100041.69;5092317;28;20079;-87
2023/10/30 08:35:54;;;;;;;6.82;1.75;;;;;;;10.39;100.00;100045.94;5092840;28;20138;-87
2023/10/30 08:38:21;;;;;;;4.80;1.73;;;;;;;10.38;100.00;100036.47;5091370;28;20059;-87
2023/10/30 08:40:47;;;;;;;8.07;1.75;;;;;;;10.36;100.00;100039.59;5093027;28;20564;-91
2023/10/30 08:43:14;;;;;;;11.45;2.10;;;;;;;10.35;100.00;100035.47;5092293;28;20484;-85
2023/10/30 08:45:41;;;;;;;14.45;2.33;;;;;;;10.37;100.00;100033.09;5092195;28;20044;-85
2023/10/30 08:48:07;;;;;;;5.75;1.85;;;;;;;10.40;100.00;100028.78;5093058;28;20098;-85
2023/10/30 08:50:45;;;;;;;7.72;2.10;;;;;;;10.43;100.00;100038.50;5092657;28;20478;-85
2023/10/30 08:53:11;;;;;;;11.75;2.00;;;;;;;10.46;100.00;100042.91;5090607;28;20511;-86
2023/10/30 08:55:40;;;;;;;7.80;2.03;;;;;;;10.51;100.00;100039.63;5091696;28;20057;-85
2023/10/30 08:58:07;;;;;;;7.57;2.05;;;;;;;10.54;100.00;100028.06;5092610;28;20102;-84
2023/10/30 09:00:34;;;;;;;8.10;2.22;;;;;;;10.57;100.00;100035.88;5092132;28;20049;-84
2023/10/30 09:03:00;;;;;;;7.93;1.95;;;;;;;10.61;100.00;100035.69;5090903;28;20125;-86
2023/10/30 09:05:27;;;;;;;7.28;1.65;;;;;;;10.62;100.00;100035.25;5092439;28;20049;-84
2023/10/30 09:07:54;;;;;;;9.75;1.83;;;;;;;10.66;100.00;100038.47;5091849;28;20048;-86
2023/10/30 09:10:26;;;;;;;12.23;2.13;;;;;;;10.66;100.00;100038.47;5092327;28;20115;-80
2023/10/30 09:12:53;;;;;;;6.75;1.63;;;;;;;10.70;100.00;100032.97;5092137;28;20044;-80
2023/10/30 09:15:19;;;;;;;5.90;1.95;;;;;;;10.74;100.00;100036.19;5092418;28;20040;-79
2023/10/30 09:17:46;;;;;;;10.52;1.98;;;;;;;10.78;100.00;100044.75;5091883;28;20328;-86
2023/10/30 09:20:13;;;;;;;8.88;2.15;;;;;;;10.83;100.00;100043.34;5092484;28;20490;-86
2023/10/30 09:22:40;;;;;;;6.72;1.95;;;;;;;10.85;100.00;100039.03;5090070;28;20044;-84
2023/10/30 09:25:07;;;;;;;7.72;2.10;;;;;;;10.91;100.00;100036.47;5092346;28;20541;-85
2023/10/30 09:27:34;;;;;;;11.73;2.28;;;;;;;10.93;100.00;100040.16;5091648;28;20048;-84
2023/10/30 09:30:03;;;;;;;6.43;2.08;;;;;;;10.98;100.00;100033.44;5092390;28;20040;-85
2023/10/30 09:32:30;;;;;;;5.75;1.85;;;;;;;11.00;100.00;100041.72;5092022;28;20048;-84
2023/10/30 09:34:58;;;;;;;6.75;1.80;;;;;;;11.01;100.00;100051.19;5090477;28;20053;-84
2023/10/30 09:37:24;;;;;;;11.65;2.58;;;;;;;11.02;100.00;100055.31;5091773;28;20045;-87
2023/10/30 09:39:51;;;;;;;12.13;2.10;;;;;;;11.06;100.00;100061.19;5092580;28;20907;-86
2023/10/30 09:42:18;;;;;;;6.82;2.45;;;;;;;11.11;100.00;100057.16;5095467;28;20090;-86
2023/10/30 09:44:45;;;;;;;7.10;1.80;;;;;;;11.15;100.00;100061.13;5096890;28;20087;-88
2023/10/30 09:47:12;;;;;;;6.10;1.67;;;;;;;11.21;100.00;100050.53;5098433;28;20047;-82
2023/10/30 09:49:39;;;;;;;12.88;1.67;;;;;;;11.22;100.00;100057.31;5095426;28;20116;-85
2023/10/30 09:52:07;;;;;;;12.93;2.13;;;;;;;11.25;100.00;100059.81;5093411;28;20059;-85
2023/10/30 09:54:34;;;;;;;7.75;1.88;;;;;;;11.29;100.00;100059.63;5095387;28;20575;-80
2023/10/30 09:57:03;;;;;;;7.95;1.88;;;;;;;11.34;100.00;100064.31;5094117;28;20049;-82
2023/10/30 09:59:32;;;;;;;5.50;1.95;;;;;;;11.39;100.00;100050.34;5095338;28;20041;-88
2023/10/30 10:02:00;;;;;;;7.38;2.10;;;;;;;11.47;100.00;100053.38;5094225;28;20485;-83
2023/10/30 10:04:26;;;;;;;8.55;1.88;;;;;;;11.52;100.00;100048.13;5095719;28;20045;-84
2023/10/30 10:06:54;;;;;;;12.75;2.20;;;;;;;11.58;100.00;100048.22;5094503;28;20085;-88
2023/10/30 10:09:23;;;;;;;7.18;1.73;;;;;;;11.62;100.00;100046.81;5095892;28;20053;-85
2023/10/30 10:11:50;;;;;;;5.88;1.70;;;;;;;11.70;100.00;100049.84;5094586;28;20052;-82
2023/10/30 10:14:20;;;;;;;6.15;1.95;;;;;;;11.84;100.00;100045.69;5095336;28;20087;-83
2023/10/30 10:16:46;;;;;;;4.53;1.83;;;;;;;12.00;100.00;100040.56;5094509;28;20516;-83
2023/10/30 10:19:20;;;;;;;7.30;1.85;;;;;;;12.18;100.00;100031.59;5095499;28;20489;-83
2023/10/30 10:21:51;;;;;;;11.60;1.92;;;;;;;12.33;100.00;100029.59;5094782;28;20047;-80
2023/10/30 10:24:27;;;;;;;9.63;1.80;;;;;;;12.43;100.00;100030.16;5095037;28;20049;-85
2023/10/30 10:26:54;;;;;;;10.05;2.50;;;;;;;12.43;100.00;100032.09;5093386;28;20149;-85
2023/10/30 10:29:23;;;;;;;8.75;2.03;;;;;;;12.40;100.00;100031.09;5093654;28;20059;-86
2023/10/30 10:31:50;;;;;;;9.65;2.10;;;;;;;12.33;100.00;100023.53;5093111;28;20052;-84
2023/10/30 10:34:17;;;;;;;4.85;1.60;;;;;;;12.27;100.00;100023.47;5092894;28;20053;-84
2023/10/30 10:36:43;;;;;;;8.25;1.75;;;;;;;12.21;100.00;100016.59;5092991;28;20072;-84
2023/10/30 10:39:14;;;;;;;5.75;1.70;;;;;;;12.17;100.00;100011.44;5095007;28;20043;-82
2023/10/30 10:41:42;;;;;;;10.80;1.85;;;;;;;12.16;100.00;100001.25;5093062;28;20079;-83
2023/10/30 10:44:09;;;;;;;12.05;2.33;;;;;;;12.13;100.00;99999.50;5094626;28;20048;-83
2023/10/30 10:46:35;;;;;;;10.52;2.10;;;;;;;12.12;100.00;99988.09;5092810;28;20044;-84
2023/10/30 10:49:05;;;;;;;6.28;1.48;;;;;;;12.13;100.00;99988.84;5094383;28;20638;-85
2023/10/30 10:51:35;;;;;;;7.00;1.80;;;;;;;12.15;100.00;99994.44;5094088;28;20068;-85
2023/10/30 10:54:09;;;;;;;7.13;2.00;;;;;;;12.20;100.00;99991.09;5094544;28;20045;-85
2023/10/30 10:56:37;;;;;;;7.72;1.80;;;;;;;12.22;100.00;99988.69;5093743;28;20084;-85
2023/10/30 10:59:10;;;;;;;5.22;1.92;;;;;;;12.29;100.00;99982.97;5094878;28;20047;-85
2023/10/30 11:01:40;;;;;;;3.35;1.70;;;;;;;12.35;100.00;99981.81;5093990;28;20048;-85
2023/10/30 11:04:09;;;;;;;7.50;2.30;;;;;;;12.47;100.00;99987.25;5094486;28;20560;-85
2023/10/30 11:06:41;;;;;;;11.02;2.65;;;;;;;12.59;100.00;99983.50;5092435;28;20135;-85
2023/10/30 11:09:14;;;;;;;9.05;2.08;;;;;;;12.67;100.00;99985.28;5094502;28;20052;-85
2023/10/30 11:11:52;;;;;;;7.10;2.08;;;;;;;12.77;100.00;99999.22;5094106;28;20120;-85
2023/10/30 11:14:30;;;;;;;14.82;2.20;;;;;;;12.80;100.00;99987.56;5093072;28;20053;-83
2023/10/30 11:17:01;;;;;;;8.38;1.90;;;;;;;12.84;100.00;99982.75;5096001;28;20044;-83
2023/10/30 11:19:28;;;;;;;7.38;2.00;;;;;;;12.89;100.00;99989.34;5094201;28;20110;-86
2023/10/30 11:21:55;;;;;;;8.23;2.03;;;;;;;12.89;100.00;99982.06;5092738;28;20462;-87
2023/10/30 11:24:38;;;;;;;9.10;1.80;;;;;;;12.91;100.00;99982.34;5093306;28;20480;-86
2023/10/30 11:27:25;;;;;;;6.15;1.92;;;;;;;12.95;100.00;99974.09;5094044;28;20048;-86